createdAt,value
2018-03-25T00:01:27.596Z,8.60
2018-03-25T00:04:33.128Z,7.60
2018-03-25T00:07:38.742Z,9.03
2018-03-25T00:10:44.339Z,8.27
2018-03-25T00:13:49.901Z,8.13
2018-03-25T00:16:55.440Z,8.27
2018-03-25T00:20:01.004Z,7.70
2018-03-25T00:23:06.515Z,8.10
2018-03-25T00:26:12.088Z,9.13
2018-03-25T00:29:17.598Z,8.90
2018-03-25T00:32:23.146Z,9.00
2018-03-25T00:35:28.704Z,8.70
2018-03-25T00:38:34.203Z,8.13
2018-03-25T00:41:39.760Z,8.10
2018-03-25T00:44:45.253Z,9.13
2018-03-25T00:47:50.794Z,8.40
2018-03-25T00:50:56.304Z,8.43
2018-03-25T00:54:01.854Z,8.67
2018-03-25T00:57:07.358Z,7.87
2018-03-25T01:00:12.912Z,7.83
2018-03-25T01:03:18.166Z,8.40
2018-03-25T01:06:23.818Z,8.33
2018-03-25T01:09:29.337Z,8.20
2018-03-25T01:12:34.905Z,9.60
2018-03-25T01:15:51.519Z,8.20
2018-03-25T01:18:56.789Z,7.93
2018-03-25T01:22:02.294Z,8.63
2018-03-25T01:25:07.867Z,8.77
2018-03-25T01:28:13.472Z,9.60
2018-03-25T01:31:19.057Z,8.70
2018-03-25T01:34:24.655Z,8.40
2018-03-25T01:37:30.217Z,9.40
2018-03-25T01:40:35.785Z,8.30
2018-03-25T01:43:41.303Z,8.27
2018-03-25T01:46:46.871Z,8.83
2018-03-25T01:49:52.373Z,9.10
2018-03-25T01:52:57.919Z,9.00
2018-03-25T01:56:03.422Z,8.60
2018-03-25T01:59:08.980Z,9.43
2018-03-25T02:02:14.510Z,9.10
2018-03-25T02:05:20.044Z,9.20
2018-03-25T02:08:25.608Z,9.67
2018-03-25T02:11:31.161Z,9.53
2018-03-25T02:14:36.656Z,8.17
2018-03-25T02:17:42.201Z,9.47
2018-03-25T02:20:47.713Z,10.07
2018-03-25T02:23:53.308Z,9.20
2018-03-25T02:26:58.845Z,8.90
2018-03-25T02:30:03.866Z,9.00
2018-03-25T02:33:09.438Z,8.63
2018-03-25T02:36:14.974Z,9.47
2018-03-25T02:39:20.522Z,8.83
2018-03-25T02:42:26.169Z,9.57
2018-03-25T02:45:31.681Z,9.87
2018-03-25T02:48:37.279Z,9.33
2018-03-25T02:51:42.637Z,9.43
2018-03-25T02:54:48.148Z,9.80
2018-03-25T02:57:53.740Z,8.20
2018-03-25T03:00:59.319Z,10.00
2018-03-25T03:04:04.922Z,9.37
2018-03-25T03:07:10.482Z,10.07
2018-03-25T03:10:16.002Z,9.63
2018-03-25T03:13:21.573Z,8.57
2018-03-25T03:16:27.097Z,9.10
2018-03-25T03:19:32.636Z,9.37
2018-03-25T03:22:38.144Z,10.13
2018-03-25T03:25:43.701Z,10.00
2018-03-25T03:28:49.221Z,10.07
2018-03-25T03:31:54.772Z,9.30
2018-03-25T03:35:00.322Z,10.53
2018-03-25T03:38:05.842Z,11.10
2018-03-25T03:41:11.417Z,10.17
2018-03-25T03:44:17.028Z,9.87
2018-03-25T03:47:22.562Z,9.40
2018-03-25T03:50:29.081Z,9.37
2018-03-25T03:53:36.323Z,10.97
2018-03-25T03:56:41.953Z,11.20
2018-03-25T03:59:47.487Z,9.50
2018-03-25T04:02:52.988Z,9.60
2018-03-25T04:05:58.587Z,10.60
2018-03-25T04:09:04.002Z,10.40
2018-03-25T04:12:09.743Z,10.43
2018-03-25T04:15:15.296Z,10.10
2018-03-25T04:18:20.853Z,10.50
2018-03-25T04:21:26.360Z,9.73
2018-03-25T04:24:31.918Z,10.87
2018-03-25T04:27:37.600Z,10.63
2018-03-25T04:30:43.342Z,10.70
2018-03-25T04:33:48.881Z,10.43
2018-03-25T04:36:54.436Z,10.00
2018-03-25T04:40:00.001Z,10.90
2018-03-25T04:43:05.565Z,9.50
2018-03-25T04:46:11.206Z,12.20
2018-03-25T04:49:16.809Z,11.90
2018-03-25T04:52:22.316Z,12.07
2018-03-25T04:55:27.882Z,11.40
2018-03-25T04:58:33.639Z,12.13
2018-03-25T05:01:39.224Z,11.00
2018-03-25T05:04:44.738Z,10.37
2018-03-25T05:07:50.298Z,11.70
2018-03-25T05:10:55.651Z,10.20
2018-03-25T05:14:01.204Z,12.30
2018-03-25T05:17:06.769Z,12.70
2018-03-25T05:20:12.348Z,12.00
2018-03-25T05:23:23.510Z,11.43
2018-03-25T05:26:30.541Z,12.10
2018-03-25T05:29:35.854Z,13.20
2018-03-25T05:32:41.407Z,11.30
2018-03-25T05:35:47.696Z,11.13
2018-03-25T05:38:58.624Z,11.47
2018-03-25T05:42:04.662Z,12.47
2018-03-25T05:45:13.792Z,11.03
2018-03-25T05:48:20.845Z,12.47
2018-03-25T05:51:27.555Z,12.10
2018-03-25T05:54:37.068Z,12.73
2018-03-25T05:57:45.091Z,11.77
2018-03-25T06:00:54.663Z,12.60
2018-03-25T06:04:01.090Z,14.00
2018-03-25T06:07:06.650Z,13.80
2018-03-25T06:10:14.514Z,13.87
2018-03-25T06:13:22.508Z,12.90
2018-03-25T06:16:29.028Z,13.60
2018-03-25T06:19:35.526Z,13.70
2018-03-25T06:22:43.826Z,12.93
2018-03-25T06:25:49.805Z,12.57
2018-03-25T06:28:56.451Z,13.83
2018-03-25T06:32:03.342Z,14.13
2018-03-25T06:35:09.766Z,13.80
2018-03-25T06:38:17.189Z,14.20
2018-03-25T06:41:23.297Z,14.13
2018-03-25T06:44:29.016Z,16.10
2018-03-25T06:47:34.682Z,15.10
2018-03-25T06:50:40.270Z,13.93
2018-03-25T06:53:45.785Z,14.63
2018-03-25T06:56:51.346Z,15.30
2018-03-25T06:59:56.881Z,15.53
2018-03-25T07:03:02.434Z,15.03
2018-03-25T07:06:07.958Z,15.20
2018-03-25T07:09:13.529Z,16.47
2018-03-25T07:12:19.097Z,18.13
2018-03-25T07:15:24.734Z,16.80
2018-03-25T07:18:33.241Z,16.57
2018-03-25T07:21:55.273Z,16.83
2018-03-25T07:25:01.998Z,16.00
2018-03-25T07:28:07.614Z,16.43
2018-03-25T07:31:13.251Z,16.87
2018-03-25T07:34:18.918Z,15.70
2018-03-25T07:37:24.490Z,16.60
2018-03-25T07:40:33.224Z,16.67
2018-03-25T07:43:38.949Z,17.00
2018-03-25T07:46:44.566Z,16.03
2018-03-25T07:49:50.187Z,15.90
2018-03-25T07:52:56.058Z,16.23
2018-03-25T07:56:03.193Z,16.63
2018-03-25T07:59:14.374Z,17.10
2018-03-25T08:02:19.890Z,16.57
2018-03-25T08:05:25.484Z,15.93
2018-03-25T08:08:31.066Z,17.30
2018-03-25T08:11:36.622Z,17.57
2018-03-25T08:14:51.126Z,17.37
2018-03-25T08:17:57.086Z,17.37
2018-03-25T08:21:02.634Z,17.73
2018-03-25T08:24:08.356Z,15.60
2018-03-25T08:27:13.921Z,17.33
2018-03-25T08:30:19.620Z,15.87
2018-03-25T08:33:33.710Z,15.73
2018-03-25T08:36:40.926Z,16.93
2018-03-25T08:39:46.552Z,18.63
2018-03-25T08:42:52.176Z,15.90
2018-03-25T08:45:57.701Z,17.30
2018-03-25T08:49:03.903Z,16.87
2018-03-25T08:52:09.941Z,17.00
2018-03-25T08:55:15.510Z,14.83
2018-03-25T08:58:21.089Z,16.77
2018-03-25T09:01:26.652Z,17.00
2018-03-25T09:04:32.266Z,18.00
2018-03-25T09:07:37.843Z,17.27
2018-03-25T09:10:43.419Z,16.63
2018-03-25T09:13:48.979Z,15.63
2018-03-25T09:16:54.561Z,17.20
2018-03-25T09:20:00.206Z,16.07
2018-03-25T09:23:05.882Z,15.73
2018-03-25T09:26:11.620Z,16.97
2018-03-25T09:29:17.204Z,15.70
2018-03-25T09:32:22.846Z,15.70
2018-03-25T09:35:28.397Z,14.80
2018-03-25T09:38:34.450Z,14.97
2018-03-25T09:41:40.042Z,14.40
2018-03-25T09:44:45.610Z,15.33
2018-03-25T09:47:51.261Z,14.73
2018-03-25T09:50:56.837Z,14.80
2018-03-25T09:54:02.422Z,16.03
2018-03-25T09:57:09.312Z,14.27
2018-03-25T10:00:14.750Z,13.87
2018-03-25T10:03:25.654Z,13.30
2018-03-25T10:06:31.492Z,13.93
2018-03-25T10:09:37.063Z,14.07
2018-03-25T10:12:50.731Z,14.20
2018-03-25T10:16:10.687Z,15.13
2018-03-25T10:19:25.349Z,15.17
2018-03-25T10:22:38.231Z,14.63
2018-03-25T10:25:51.278Z,13.60
2018-03-25T10:29:01.485Z,13.63
2018-03-25T10:32:13.530Z,16.40
2018-03-25T10:35:21.825Z,15.43
2018-03-25T10:38:32.051Z,14.07
2018-03-25T10:41:38.040Z,13.00
2018-03-25T10:44:47.367Z,14.83
2018-03-25T10:47:57.264Z,12.77
2018-03-25T10:51:04.760Z,12.60
2018-03-25T10:54:10.310Z,13.27
2018-03-25T10:57:15.942Z,12.10
2018-03-25T11:00:21.634Z,13.90
2018-03-25T11:03:27.322Z,12.57
2018-03-25T11:06:32.987Z,11.83
2018-03-25T11:09:38.553Z,11.90
2018-03-25T11:12:44.082Z,13.27
2018-03-25T11:15:49.638Z,12.80
2018-03-25T11:18:55.164Z,14.57
2018-03-25T11:22:00.574Z,14.53
2018-03-25T11:25:06.179Z,12.83
2018-03-25T11:28:11.744Z,13.80
2018-03-25T11:31:17.389Z,12.97
2018-03-25T11:34:22.967Z,13.93
2018-03-25T11:37:28.625Z,14.37
2018-03-25T11:40:34.452Z,14.27
2018-03-25T11:43:40.007Z,15.20
2018-03-25T11:46:45.610Z,14.23
2018-03-25T11:49:51.189Z,14.63
2018-03-25T11:52:56.789Z,13.97
2018-03-25T11:56:02.362Z,13.60
2018-03-25T11:59:07.925Z,13.13
2018-03-25T12:02:13.480Z,14.37
2018-03-25T12:05:19.320Z,14.67
2018-03-25T12:08:24.886Z,14.10
2018-03-25T12:11:30.414Z,14.20
2018-03-25T12:14:36.004Z,13.90
2018-03-25T12:17:41.530Z,13.47
2018-03-25T12:20:47.101Z,13.50
2018-03-25T12:23:52.632Z,13.50
2018-03-25T12:26:58.194Z,12.60
2018-03-25T12:30:03.814Z,13.40
2018-03-25T12:33:09.383Z,12.10
2018-03-25T12:36:15.183Z,12.57
2018-03-25T12:39:20.755Z,12.20
2018-03-25T12:42:26.314Z,12.13
2018-03-25T12:45:32.223Z,12.97
2018-03-25T12:48:37.812Z,11.90
2018-03-25T12:51:43.349Z,12.83
2018-03-25T12:54:48.937Z,12.33
2018-03-25T12:57:54.576Z,12.10
2018-03-25T13:01:00.178Z,11.23
2018-03-25T13:04:05.564Z,11.73
2018-03-25T13:07:11.162Z,12.23
2018-03-25T13:10:16.693Z,12.17
2018-03-25T13:13:22.252Z,12.50
2018-03-25T13:16:27.831Z,11.50
2018-03-25T13:19:33.404Z,12.60
2018-03-25T13:22:38.947Z,10.93
2018-03-25T13:25:44.555Z,11.67
2018-03-25T13:28:50.170Z,11.20
2018-03-25T13:31:55.757Z,12.47
2018-03-25T13:35:01.370Z,12.03
2018-03-25T13:38:06.890Z,10.93
2018-03-25T13:41:12.466Z,12.43
2018-03-25T13:44:18.103Z,12.80
2018-03-25T13:47:23.703Z,13.60
2018-03-25T13:50:31.753Z,13.10
2018-03-25T13:53:37.324Z,12.87
2018-03-25T13:56:42.838Z,11.33
2018-03-25T13:59:48.413Z,10.87
2018-03-25T14:02:53.970Z,13.40
2018-03-25T14:05:59.530Z,11.50
2018-03-25T14:09:04.630Z,11.93
2018-03-25T14:12:10.217Z,13.30
2018-03-25T14:15:15.766Z,13.67
2018-03-25T14:18:21.327Z,13.27
2018-03-25T14:21:26.970Z,12.50
2018-03-25T14:24:32.501Z,13.60
2018-03-25T14:27:38.071Z,13.30
2018-03-25T14:30:43.662Z,12.47
2018-03-25T14:33:49.189Z,13.90
2018-03-25T14:36:59.493Z,13.70
2018-03-25T14:40:05.316Z,15.17
2018-03-25T14:43:20.979Z,12.93
2018-03-25T14:46:28.589Z,14.53
2018-03-25T14:49:34.363Z,12.67
2018-03-25T14:52:39.930Z,13.17
2018-03-25T14:56:09.289Z,14.40
2018-03-25T14:59:15.000Z,12.67
2018-03-25T15:02:20.575Z,13.93
2018-03-25T15:05:26.204Z,13.90
2018-03-25T15:08:34.237Z,13.53
2018-03-25T15:11:39.810Z,12.33
2018-03-25T15:14:45.395Z,13.00
2018-03-25T15:17:51.177Z,13.30
2018-03-25T15:20:56.773Z,13.10
2018-03-25T15:24:02.366Z,13.10
2018-03-25T15:27:07.885Z,14.57
2018-03-25T15:30:13.205Z,13.20
2018-03-25T15:33:18.727Z,12.83
2018-03-25T15:36:24.354Z,13.20
2018-03-25T15:39:29.909Z,13.83
2018-03-25T15:42:35.558Z,12.67
2018-03-25T15:45:44.324Z,14.60
2018-03-25T15:48:50.942Z,13.20
2018-03-25T15:51:56.578Z,12.93
2018-03-25T15:55:02.148Z,13.33
2018-03-25T15:58:07.759Z,13.47
2018-03-25T16:01:13.762Z,13.03
2018-03-25T16:04:19.768Z,13.27
2018-03-25T16:07:26.198Z,12.80
2018-03-25T16:10:35.181Z,11.97
2018-03-25T16:13:42.615Z,13.57
2018-03-25T16:16:49.562Z,14.17
2018-03-25T16:19:55.396Z,12.90
2018-03-25T16:23:00.923Z,13.83
2018-03-25T16:26:07.632Z,14.07
2018-03-25T16:29:13.520Z,13.53
2018-03-25T16:32:19.868Z,13.73
2018-03-25T16:35:33.075Z,12.60
2018-03-25T16:38:52.533Z,13.00
2018-03-25T16:42:12.861Z,13.17
2018-03-25T16:45:29.503Z,13.60
2018-03-25T16:48:42.447Z,14.23
2018-03-25T16:51:52.835Z,14.43
2018-03-25T16:55:03.033Z,14.37
2018-03-25T16:58:13.756Z,13.90
2018-03-25T17:01:29.880Z,12.83
2018-03-25T17:04:43.145Z,14.73
2018-03-25T17:07:54.517Z,13.63
2018-03-25T17:11:08.851Z,13.63
2018-03-25T17:14:23.187Z,13.53
2018-03-25T17:17:38.000Z,14.03
2018-03-25T17:20:51.729Z,12.30
2018-03-25T17:24:06.311Z,13.77
2018-03-25T17:27:21.587Z,13.40
2018-03-25T17:30:28.321Z,13.40
2018-03-25T17:33:37.283Z,12.40
2018-03-25T17:36:44.390Z,13.63
2018-03-25T17:39:57.915Z,12.63
2018-03-25T17:43:11.502Z,14.17
2018-03-25T17:46:28.109Z,15.03
2018-03-25T17:49:36.264Z,13.20
2018-03-25T17:52:45.461Z,14.40
2018-03-25T17:55:53.863Z,14.13
2018-03-25T17:59:05.164Z,14.57
2018-03-25T18:02:20.482Z,15.40
2018-03-25T18:05:31.117Z,16.27
2018-03-25T18:08:37.640Z,17.60
2018-03-25T18:11:43.251Z,15.67
2018-03-25T18:14:48.895Z,14.43
2018-03-25T18:17:55.487Z,13.50
2018-03-25T18:21:01.087Z,14.90
2018-03-25T18:24:07.482Z,15.30
2018-03-25T18:27:19.592Z,15.60
2018-03-25T18:30:38.833Z,13.40
2018-03-25T18:33:51.807Z,15.17
2018-03-25T18:37:05.839Z,14.83
2018-03-25T18:40:14.689Z,15.10
2018-03-25T18:43:28.945Z,15.40
2018-03-25T18:46:42.533Z,15.67
2018-03-25T18:49:50.787Z,14.57
2018-03-25T18:52:59.108Z,13.80
2018-03-25T18:56:07.498Z,14.13
2018-03-25T18:59:15.304Z,13.17
2018-03-25T19:02:23.468Z,15.53
2018-03-25T19:05:39.172Z,15.33
2018-03-25T19:08:47.969Z,14.60
2018-03-25T19:12:11.992Z,16.30
2018-03-25T19:15:21.121Z,16.87
2018-03-25T19:18:29.972Z,16.00
2018-03-25T19:21:40.413Z,15.57
2018-03-25T19:24:49.390Z,14.67
2018-03-25T19:28:00.992Z,14.77
2018-03-25T19:31:09.873Z,15.50
2018-03-25T19:34:21.328Z,16.10
2018-03-25T19:37:37.314Z,14.77
2018-03-25T19:40:56.117Z,15.67
2018-03-25T19:44:12.633Z,15.40
2018-03-25T19:47:22.462Z,15.10
2018-03-25T19:50:38.511Z,17.47
2018-03-25T19:54:04.781Z,17.73
2018-03-25T19:57:13.425Z,18.77
2018-03-25T20:00:18.953Z,17.73
2018-03-25T20:03:24.527Z,18.83
2018-03-25T20:06:30.083Z,19.03
2018-03-25T20:09:36.542Z,18.87
2018-03-25T20:12:44.330Z,18.33
2018-03-25T20:16:00.610Z,19.47
2018-03-25T20:19:23.178Z,19.83
2018-03-25T20:22:50.009Z,20.00
2018-03-25T20:26:21.755Z,18.97
2018-03-25T20:29:30.229Z,19.00
2018-03-25T20:32:36.239Z,19.23
2018-03-25T20:35:42.079Z,19.43
2018-03-25T20:38:47.634Z,20.03
2018-03-25T20:45:20.482Z,21.77
2018-03-25T20:48:34.636Z,19.13
2018-03-25T20:51:47.250Z,18.50
2018-03-25T20:54:57.832Z,19.80
2018-03-25T20:58:06.334Z,20.33
2018-03-25T21:01:14.592Z,21.10
2018-03-25T21:04:25.719Z,20.70
2018-03-25T21:07:34.204Z,19.33
2018-03-25T21:10:41.958Z,21.20
2018-03-25T21:13:49.748Z,22.07
2018-03-25T21:16:55.824Z,20.93
2018-03-25T21:20:03.134Z,21.93
2018-03-25T21:23:08.653Z,21.17
2018-03-25T21:26:14.238Z,22.20
2018-03-25T21:29:19.864Z,21.67
2018-03-25T21:32:25.389Z,20.90
2018-03-25T21:35:30.942Z,22.83
2018-03-25T21:38:36.613Z,22.03
2018-03-25T21:41:42.190Z,23.70
2018-03-25T21:44:47.756Z,22.50
2018-03-25T21:47:53.272Z,23.77
2018-03-25T21:50:58.817Z,22.73
2018-03-25T21:54:04.420Z,23.30
2018-03-25T21:57:09.999Z,22.70
2018-03-25T22:00:15.552Z,23.50
2018-03-25T22:03:20.870Z,24.10
2018-03-25T22:06:26.390Z,23.33
2018-03-25T22:09:31.953Z,23.40
2018-03-25T22:12:37.477Z,24.40
2018-03-25T22:15:43.141Z,24.33
2018-03-25T22:18:59.749Z,23.30
2018-03-25T22:22:05.317Z,24.80
2018-03-25T22:25:10.825Z,23.47
2018-03-25T22:28:16.401Z,25.33
2018-03-25T22:31:21.917Z,23.87
2018-03-25T22:34:27.464Z,23.20
2018-03-25T22:37:32.969Z,24.57
2018-03-25T22:40:38.537Z,24.30
2018-03-25T22:43:44.155Z,25.30
2018-03-25T22:46:49.726Z,23.77
2018-03-25T22:49:55.227Z,25.50
2018-03-25T22:53:00.797Z,23.90
2018-03-25T22:56:06.325Z,24.80
2018-03-25T22:59:11.894Z,24.80
2018-03-25T23:02:17.407Z,24.73
2018-03-25T23:05:22.972Z,28.30
2018-03-25T23:08:28.510Z,25.17
2018-03-25T23:11:34.104Z,26.00
2018-03-25T23:14:39.617Z,24.80
2018-03-25T23:17:45.178Z,24.20
2018-03-25T23:20:50.731Z,24.93
2018-03-25T23:23:56.373Z,25.57
2018-03-25T23:27:01.989Z,25.37
2018-03-25T23:30:07.206Z,25.27
2018-03-25T23:33:12.520Z,24.83
2018-03-25T23:36:18.094Z,24.93
2018-03-25T23:39:23.609Z,25.10
2018-03-25T23:42:29.158Z,27.23
2018-03-25T23:45:35.933Z,24.60
2018-03-25T23:48:41.437Z,24.57
2018-03-25T23:51:47.002Z,25.77
2018-03-25T23:54:52.513Z,26.60
2018-03-25T23:57:58.112Z,26.53
